createdAt,value
2023-03-08T00:00:14.408Z,0.90
2023-03-08T00:02:42.374Z,0.90
2023-03-08T00:05:11.229Z,0.90
2023-03-08T00:07:40.337Z,0.90
2023-03-08T00:10:09.101Z,1.00
2023-03-08T00:12:36.853Z,0.90
2023-03-08T00:15:05.132Z,0.90
2023-03-08T00:17:32.866Z,0.90
2023-03-08T00:20:00.575Z,0.90
2023-03-08T00:22:28.305Z,0.90
2023-03-08T00:24:57.495Z,0.90
2023-03-08T00:27:25.242Z,0.90
2023-03-08T00:29:52.991Z,0.90
2023-03-08T00:32:20.757Z,1.00
2023-03-08T00:34:48.524Z,1.00
2023-03-08T00:37:16.249Z,1.00
2023-03-08T00:39:44.082Z,1.00
2023-03-08T00:42:13.144Z,1.00
2023-03-08T00:44:40.873Z,1.00
2023-03-08T00:47:08.668Z,0.90
2023-03-08T00:49:36.536Z,0.90
2023-03-08T00:52:04.703Z,1.00
2023-03-08T00:54:32.873Z,0.90
2023-03-08T00:57:00.612Z,0.90
2023-03-08T00:59:29.797Z,0.90
2023-03-08T01:01:57.686Z,0.90
2023-03-08T01:04:25.572Z,0.90
2023-03-08T01:06:53.342Z,0.90
2023-03-08T01:09:21.102Z,0.90
2023-03-08T01:11:48.823Z,0.90
2023-03-08T01:14:16.602Z,0.90
2023-03-08T01:16:45.879Z,0.90
2023-03-08T01:19:13.660Z,1.00
2023-03-08T01:21:41.446Z,1.00
2023-03-08T01:24:09.241Z,0.90
2023-03-08T01:26:36.987Z,0.90
2023-03-08T01:29:04.822Z,1.00
2023-03-08T01:31:32.570Z,1.00
2023-03-08T01:34:01.700Z,1.00
2023-03-08T01:36:29.630Z,1.00
2023-03-08T01:38:57.730Z,1.00
2023-03-08T01:41:28.058Z,1.00
2023-03-08T01:43:56.173Z,1.00
2023-03-08T01:46:27.213Z,1.00
2023-03-08T01:49:00.725Z,1.00
2023-03-08T01:51:36.943Z,1.00
2023-03-08T01:54:08.965Z,1.00
2023-03-08T01:56:38.012Z,1.00
2023-03-08T01:59:06.164Z,1.00
2023-03-08T02:01:35.515Z,1.00
2023-03-08T02:04:04.059Z,1.00
2023-03-08T02:06:33.422Z,1.00
2023-03-08T02:09:04.465Z,1.00
2023-03-08T02:11:33.326Z,1.00
2023-03-08T02:14:01.448Z,1.00
2023-03-08T02:16:29.636Z,1.00
2023-03-08T02:18:58.846Z,1.00
2023-03-08T02:21:27.787Z,1.00
2023-03-08T02:23:57.561Z,1.00
2023-03-08T02:26:26.105Z,1.00
2023-03-08T02:28:53.817Z,1.00
2023-03-08T02:31:21.551Z,1.00
2023-03-08T02:33:49.283Z,1.00
2023-03-08T02:36:17.022Z,1.00
2023-03-08T02:38:44.761Z,1.00
2023-03-08T02:41:13.812Z,1.00
2023-03-08T02:43:41.538Z,1.00
2023-03-08T02:46:12.082Z,1.00
2023-03-08T02:48:39.923Z,1.00
2023-03-08T02:51:07.929Z,1.00
2023-03-08T02:53:35.675Z,1.00
2023-03-08T02:56:03.388Z,1.00
2023-03-08T02:58:32.659Z,1.00
2023-03-08T03:01:00.456Z,1.00
2023-03-08T03:03:28.421Z,1.00
2023-03-08T03:05:56.220Z,1.00
2023-03-08T03:08:23.972Z,1.00
2023-03-08T03:10:51.690Z,1.00
2023-03-08T03:13:20.510Z,1.00
2023-03-08T03:15:49.688Z,1.00
2023-03-08T03:18:17.422Z,1.00
2023-03-08T03:20:45.178Z,0.90
2023-03-08T03:23:12.905Z,0.90
2023-03-08T03:25:40.879Z,1.00
2023-03-08T03:28:08.684Z,0.90
2023-03-08T03:30:36.393Z,0.90
2023-03-08T03:33:05.545Z,1.00
2023-03-08T03:35:33.348Z,0.90
2023-03-08T03:38:01.096Z,0.90
2023-03-08T03:40:28.906Z,0.90
2023-03-08T03:42:56.637Z,0.90
2023-03-08T03:45:24.348Z,0.90
2023-03-08T03:47:52.061Z,0.90
2023-03-08T03:50:21.141Z,0.90
2023-03-08T03:52:48.873Z,0.90
2023-03-08T03:55:16.643Z,0.90
2023-03-08T03:57:44.483Z,0.80
2023-03-08T04:00:13.322Z,0.80
2023-03-08T04:02:41.227Z,0.80
2023-03-08T04:05:09.353Z,0.80
2023-03-08T04:07:38.494Z,0.80
2023-03-08T04:10:07.212Z,0.80
2023-03-08T04:12:34.938Z,0.80
2023-03-08T04:15:02.679Z,0.80
2023-03-08T04:17:30.404Z,0.80
2023-03-08T04:19:58.114Z,0.80
2023-03-08T04:22:25.863Z,0.80
2023-03-08T04:24:54.904Z,0.80
2023-03-08T04:27:22.624Z,0.80
2023-03-08T04:29:50.413Z,0.80
2023-03-08T04:32:18.116Z,0.80
2023-03-08T04:34:45.876Z,0.80
2023-03-08T04:37:13.695Z,0.80
2023-03-08T04:39:41.409Z,0.80
2023-03-08T04:42:10.570Z,0.70
2023-03-08T04:44:38.312Z,0.80
2023-03-08T04:47:06.339Z,0.80
2023-03-08T04:49:34.169Z,0.70
2023-03-08T04:52:01.894Z,0.70
2023-03-08T04:54:29.635Z,0.80
2023-03-08T04:56:57.409Z,0.70
2023-03-08T04:59:26.577Z,0.70
2023-03-08T05:01:54.443Z,0.70
2023-03-08T05:04:22.282Z,0.60
2023-03-08T05:06:50.046Z,0.50
2023-03-08T05:09:17.760Z,0.60
2023-03-08T05:11:45.477Z,0.50
2023-03-08T05:14:13.171Z,0.50
2023-03-08T05:16:42.316Z,0.50
2023-03-08T05:19:10.076Z,0.50
2023-03-08T05:21:37.773Z,0.50
2023-03-08T05:24:06.062Z,0.50
2023-03-08T05:26:33.942Z,0.50
2023-03-08T05:29:03.312Z,0.50
2023-03-08T05:31:31.092Z,0.50
2023-03-08T05:34:00.165Z,0.50
2023-03-08T05:36:27.917Z,0.50
2023-03-08T05:38:56.382Z,0.50
2023-03-08T05:41:24.118Z,0.50
2023-03-08T05:43:51.826Z,0.60
2023-03-08T05:46:20.874Z,0.50
2023-03-08T05:48:48.628Z,0.50
2023-03-08T05:51:18.950Z,0.50
2023-03-08T05:53:46.861Z,0.50
2023-03-08T05:56:16.100Z,0.50
2023-03-08T05:58:46.759Z,0.50
2023-03-08T06:01:17.846Z,0.50
2023-03-08T06:03:45.744Z,0.50
2023-03-08T06:06:14.051Z,0.50
2023-03-08T06:08:43.851Z,0.40
2023-03-08T06:11:13.207Z,0.40
2023-03-08T06:13:41.612Z,0.40
2023-03-08T06:16:09.974Z,0.40
2023-03-08T06:18:38.977Z,0.40
2023-03-08T06:21:08.770Z,0.40
2023-03-08T06:23:37.359Z,0.40
2023-03-08T06:26:08.054Z,0.40
2023-03-08T06:28:36.496Z,0.40
2023-03-08T06:31:04.736Z,0.40
2023-03-08T06:33:34.276Z,0.40
2023-03-08T06:36:03.840Z,0.40
2023-03-08T06:38:34.335Z,0.40
2023-03-08T06:41:02.690Z,0.40
2023-03-08T06:43:32.404Z,0.40
2023-03-08T06:46:00.251Z,0.40
2023-03-08T06:48:27.962Z,0.40
2023-03-08T06:50:55.668Z,0.40
2023-03-08T06:53:23.391Z,0.40
2023-03-08T06:55:51.099Z,0.40
2023-03-08T06:58:18.836Z,0.50
2023-03-08T07:00:48.077Z,0.40
2023-03-08T07:03:15.814Z,0.50
2023-03-08T07:05:43.690Z,0.50
2023-03-08T07:08:11.484Z,0.50
2023-03-08T07:10:39.240Z,0.50
2023-03-08T07:13:07.036Z,0.50
2023-03-08T07:15:34.832Z,0.50
2023-03-08T07:18:03.903Z,0.50
2023-03-08T07:20:31.615Z,0.50
2023-03-08T07:23:01.796Z,0.50
2023-03-08T07:25:29.866Z,0.50
2023-03-08T07:27:59.644Z,0.50
2023-03-08T07:30:28.117Z,0.50
2023-03-08T07:32:56.037Z,0.50
2023-03-08T07:35:25.125Z,0.50
2023-03-08T07:37:52.831Z,0.50
2023-03-08T07:40:20.836Z,0.60
2023-03-08T07:42:48.917Z,0.60
2023-03-08T07:45:16.792Z,0.70
2023-03-08T07:47:44.495Z,0.70
2023-03-08T07:50:12.820Z,0.70
2023-03-08T07:52:41.864Z,0.70
2023-03-08T07:55:11.213Z,0.80
2023-03-08T07:57:39.012Z,0.80
2023-03-08T08:00:08.682Z,0.80
2023-03-08T08:02:37.210Z,0.80
2023-03-08T08:05:05.835Z,0.80
2023-03-08T08:07:33.612Z,0.80
2023-03-08T08:10:02.653Z,0.90
2023-03-08T08:12:30.386Z,0.90
2023-03-08T08:14:59.785Z,0.90
2023-03-08T08:17:27.597Z,0.90
2023-03-08T08:19:55.335Z,1.00
2023-03-08T08:22:23.067Z,1.00
2023-03-08T08:24:50.778Z,1.00
2023-03-08T08:27:19.822Z,1.00
2023-03-08T08:29:49.464Z,1.10
2023-03-08T08:32:17.259Z,1.10
2023-03-08T08:34:45.154Z,1.20
2023-03-08T08:37:12.847Z,1.20
2023-03-08T08:39:40.690Z,1.30
2023-03-08T08:42:09.128Z,1.30
2023-03-08T08:44:38.351Z,1.30
2023-03-08T08:47:06.160Z,1.30
2023-03-08T08:49:33.925Z,1.30
2023-03-08T08:52:01.976Z,1.40
2023-03-08T08:54:29.767Z,1.40
2023-03-08T08:56:57.496Z,1.50
2023-03-08T08:59:25.256Z,1.60
2023-03-08T09:01:54.285Z,1.70
2023-03-08T09:04:22.130Z,1.70
2023-03-08T09:06:50.117Z,1.70
2023-03-08T09:09:18.809Z,1.80
2023-03-08T09:11:54.571Z,1.80
2023-03-08T09:14:23.906Z,1.80
2023-03-08T09:16:52.641Z,1.90
2023-03-08T09:19:21.929Z,1.90
2023-03-08T09:21:49.682Z,2.00
2023-03-08T09:24:17.663Z,2.00
2023-03-08T09:26:45.365Z,2.00
2023-03-08T09:29:13.442Z,2.00
2023-03-08T09:31:42.310Z,2.10
2023-03-08T09:34:13.410Z,2.20
2023-03-08T09:36:43.311Z,2.20
2023-03-08T09:39:12.964Z,2.30
2023-03-08T09:41:49.288Z,2.30
2023-03-08T09:44:56.944Z,2.40
2023-03-08T09:47:33.854Z,2.50
2023-03-08T09:50:10.856Z,2.50
2023-03-08T09:52:43.611Z,2.60
2023-03-08T09:55:17.903Z,2.70
2023-03-08T09:57:52.572Z,2.70
2023-03-08T10:00:23.439Z,2.80
2023-03-08T10:03:02.622Z,2.90
2023-03-08T10:05:37.566Z,3.00
2023-03-08T10:08:11.530Z,3.00
2023-03-08T10:10:49.350Z,3.00
2023-03-08T10:13:38.906Z,3.10
2023-03-08T10:16:13.810Z,3.20
2023-03-08T10:18:46.407Z,3.20
2023-03-08T10:21:18.136Z,3.20
2023-03-08T10:23:49.123Z,3.20
2023-03-08T10:26:18.474Z,3.20
2023-03-08T10:28:46.230Z,3.30
2023-03-08T10:31:24.045Z,3.40
2023-03-08T10:33:58.847Z,3.30
2023-03-08T10:36:26.848Z,3.30
2023-03-08T10:39:04.602Z,3.30
2023-03-08T10:41:37.365Z,3.30
2023-03-08T10:44:05.549Z,3.30
2023-03-08T10:46:33.790Z,3.30
2023-03-08T10:49:10.062Z,3.40
2023-03-08T10:51:37.822Z,3.40
2023-03-08T10:54:07.703Z,3.40
2023-03-08T10:56:38.778Z,3.40
2023-03-08T10:59:15.787Z,3.40
2023-03-08T11:01:50.552Z,3.50
2023-03-08T11:04:21.071Z,3.50
2023-03-08T11:06:49.015Z,3.50
2023-03-08T11:09:23.884Z,3.60
2023-03-08T11:11:51.748Z,3.60
2023-03-08T11:14:20.044Z,3.50
2023-03-08T11:17:03.237Z,3.60
2023-03-08T11:19:43.976Z,3.60
2023-03-08T11:22:24.701Z,3.70
2023-03-08T11:25:15.244Z,3.70
2023-03-08T11:27:57.562Z,3.80
2023-03-08T11:30:39.203Z,3.90
2023-03-08T11:33:32.704Z,3.90
2023-03-08T11:36:07.018Z,4.00
2023-03-08T11:38:37.060Z,4.00
2023-03-08T11:41:19.872Z,4.00
2023-03-08T11:44:12.146Z,3.90
2023-03-08T11:46:51.442Z,3.90
2023-03-08T11:49:34.510Z,3.90
2023-03-08T11:52:13.002Z,3.90
2023-03-08T11:54:57.223Z,3.90
2023-03-08T11:57:29.856Z,3.90
2023-03-08T12:00:02.173Z,3.90
2023-03-08T12:02:34.497Z,3.90
2023-03-08T12:05:08.673Z,3.90
2023-03-08T12:07:42.107Z,3.90
2023-03-08T12:10:16.748Z,3.90
2023-03-08T12:12:49.955Z,4.00
2023-03-08T12:15:25.583Z,4.00
2023-03-08T12:17:58.097Z,4.10
2023-03-08T12:20:31.158Z,4.10
2023-03-08T12:23:02.174Z,4.20
2023-03-08T12:25:33.053Z,4.30
2023-03-08T12:28:06.732Z,4.30
2023-03-08T12:30:43.873Z,4.30
2023-03-08T12:33:15.429Z,4.40
2023-03-08T12:35:53.210Z,4.40
2023-03-08T12:38:33.448Z,4.40
2023-03-08T12:41:01.696Z,4.40
2023-03-08T12:43:33.253Z,4.40
2023-03-08T12:46:07.555Z,4.50
2023-03-08T12:48:38.847Z,4.50
2023-03-08T12:51:20.527Z,4.60
2023-03-08T12:53:59.085Z,4.60
2023-03-08T12:56:31.775Z,4.60
2023-03-08T12:59:02.758Z,4.60
2023-03-08T13:01:35.521Z,4.60
2023-03-08T13:04:05.044Z,4.70
2023-03-08T13:07:06.505Z,4.70
2023-03-08T13:09:38.866Z,4.70
2023-03-08T13:12:23.521Z,4.60
2023-03-08T13:15:08.701Z,4.60
2023-03-08T13:17:40.193Z,4.60
2023-03-08T13:20:20.906Z,4.60
2023-03-08T13:23:01.310Z,4.60
2023-03-08T13:25:50.540Z,4.60
2023-03-08T13:28:21.146Z,4.60
2023-03-08T13:30:52.606Z,4.60
2023-03-08T13:33:23.383Z,4.60
2023-03-08T13:35:59.195Z,4.60
2023-03-08T13:38:28.887Z,4.60
2023-03-08T13:40:58.152Z,4.60
2023-03-08T13:43:27.763Z,4.60
2023-03-08T13:45:59.505Z,4.60
2023-03-08T13:48:30.997Z,4.60
2023-03-08T13:51:00.522Z,4.60
2023-03-08T13:53:31.130Z,4.50
2023-03-08T13:56:00.762Z,4.60
2023-03-08T13:58:33.476Z,4.60
2023-03-08T14:01:12.823Z,4.60
2023-03-08T14:03:42.139Z,4.60
2023-03-08T14:06:18.785Z,4.60
2023-03-08T14:08:47.255Z,4.60
2023-03-08T14:11:18.011Z,4.60
2023-03-08T14:13:48.887Z,4.50
2023-03-08T14:16:31.181Z,4.50
2023-03-08T14:19:00.998Z,4.40
2023-03-08T14:21:30.295Z,4.40
2023-03-08T14:23:59.646Z,4.40
2023-03-08T14:26:30.816Z,4.30
2023-03-08T14:29:17.751Z,4.30
2023-03-08T14:31:59.788Z,4.30
2023-03-08T14:34:33.636Z,4.30
2023-03-08T14:37:03.543Z,4.30
2023-03-08T14:39:33.082Z,4.30
2023-03-08T14:42:10.998Z,4.30
2023-03-08T14:44:38.722Z,4.20
2023-03-08T14:47:22.045Z,4.20
2023-03-08T14:49:56.836Z,4.10
2023-03-08T14:52:27.774Z,4.10
2023-03-08T14:54:55.523Z,4.10
2023-03-08T14:57:25.645Z,4.10
2023-03-08T14:59:54.437Z,4.10
2023-03-08T15:02:23.459Z,4.00
2023-03-08T15:07:35.294Z,4.00
2023-03-08T15:10:05.451Z,4.00
2023-03-08T15:12:33.156Z,3.90
2023-03-08T15:15:00.886Z,3.90
2023-03-08T15:17:29.937Z,3.90
2023-03-08T15:19:57.632Z,3.90
2023-03-08T15:22:25.416Z,3.90
2023-03-08T15:24:53.129Z,3.80
2023-03-08T15:27:20.808Z,3.80
2023-03-08T15:29:48.551Z,3.80
2023-03-08T15:32:16.365Z,3.80
2023-03-08T15:34:45.484Z,3.80
2023-03-08T15:37:15.336Z,3.80
2023-03-08T15:39:43.033Z,3.70
2023-03-08T15:42:10.745Z,3.80
2023-03-08T15:44:38.454Z,3.70
2023-03-08T15:47:06.499Z,3.70
2023-03-08T15:49:34.635Z,3.70
2023-03-08T15:52:03.691Z,3.60
2023-03-08T15:54:31.734Z,3.60
2023-03-08T15:56:59.454Z,3.60
2023-03-08T15:59:27.187Z,3.60
2023-03-08T16:01:54.988Z,3.60
2023-03-08T16:04:22.724Z,3.60
2023-03-08T16:06:50.432Z,3.60
2023-03-08T16:09:19.510Z,3.50
2023-03-08T16:11:48.188Z,3.50
2023-03-08T16:14:17.780Z,3.50
2023-03-08T16:16:46.174Z,3.50
2023-03-08T16:19:14.250Z,3.50
2023-03-08T16:21:41.988Z,3.50
2023-03-08T16:24:10.820Z,3.40
2023-03-08T16:26:39.860Z,3.40
2023-03-08T16:29:07.639Z,3.40
2023-03-08T16:31:35.767Z,3.40
2023-03-08T16:34:03.831Z,3.40
2023-03-08T16:36:31.773Z,3.40
2023-03-08T16:38:59.973Z,3.40
2023-03-08T16:41:29.891Z,3.40
2023-03-08T16:43:59.471Z,3.40
2023-03-08T16:46:27.834Z,3.40
2023-03-08T16:48:56.696Z,3.30
2023-03-08T16:51:26.410Z,3.30
2023-03-08T16:53:54.356Z,3.30
2023-03-08T16:56:23.737Z,3.30
2023-03-08T16:58:51.612Z,3.30
2023-03-08T17:01:21.611Z,3.30
2023-03-08T17:03:49.461Z,3.20
2023-03-08T17:06:19.333Z,3.20
2023-03-08T17:08:47.458Z,3.20
2023-03-08T17:11:16.419Z,3.20
2023-03-08T17:13:44.600Z,3.20
2023-03-08T17:16:13.329Z,3.20
2023-03-08T17:18:42.435Z,3.20
2023-03-08T17:21:10.527Z,3.10
2023-03-08T17:23:38.234Z,3.10
2023-03-08T17:26:07.506Z,3.10
2023-03-08T17:28:35.974Z,3.10
2023-03-08T17:31:07.549Z,3.00
2023-03-08T17:33:35.432Z,3.00
2023-03-08T17:36:06.010Z,3.00
2023-03-08T17:38:34.278Z,3.00
2023-03-08T17:41:05.441Z,3.00
2023-03-08T17:43:33.168Z,3.00
2023-03-08T17:46:02.112Z,3.00
2023-03-08T17:48:30.742Z,3.00
2023-03-08T17:51:04.206Z,2.90
2023-03-08T17:53:32.570Z,2.90
2023-03-08T17:56:01.690Z,2.90
2023-03-08T17:58:29.810Z,2.90
2023-03-08T18:00:57.766Z,2.90
2023-03-08T18:03:25.532Z,2.90
2023-03-08T18:05:54.292Z,2.90
2023-03-08T18:08:23.336Z,2.90
2023-03-08T18:10:51.055Z,2.90
2023-03-08T18:13:18.794Z,2.90
2023-03-08T18:15:46.598Z,2.90
2023-03-08T18:18:14.458Z,2.90
2023-03-08T18:20:42.160Z,2.90
2023-03-08T18:23:09.929Z,2.90
2023-03-08T18:25:40.512Z,2.90
2023-03-08T18:28:08.299Z,2.90
2023-03-08T18:30:36.164Z,2.90
2023-03-08T18:33:05.130Z,2.80
2023-03-08T18:35:33.104Z,2.80
2023-03-08T18:38:01.511Z,2.80
2023-03-08T18:40:29.440Z,2.80
2023-03-08T18:42:58.590Z,2.80
2023-03-08T18:45:26.395Z,2.80
2023-03-08T18:47:54.086Z,2.80
2023-03-08T18:50:24.133Z,2.80
2023-03-08T18:52:51.945Z,2.80
2023-03-08T18:55:19.650Z,2.80
2023-03-08T18:57:47.360Z,2.80
2023-03-08T19:00:17.933Z,2.70
2023-03-08T19:02:45.680Z,2.70
2023-03-08T19:05:13.515Z,2.70
2023-03-08T19:07:41.814Z,2.70
2023-03-08T19:10:14.803Z,2.70
2023-03-08T19:12:43.607Z,2.70
2023-03-08T19:15:11.576Z,2.70
2023-03-08T19:17:40.667Z,2.70
2023-03-08T19:20:09.646Z,2.70
2023-03-08T19:22:39.497Z,2.70
2023-03-08T19:25:08.111Z,2.70
2023-03-08T19:27:35.990Z,2.70
2023-03-08T19:30:04.320Z,2.70
2023-03-08T19:32:32.103Z,2.70
2023-03-08T19:35:01.674Z,2.70
2023-03-08T19:37:29.480Z,2.70
2023-03-08T19:39:57.292Z,2.70
2023-03-08T19:42:25.035Z,2.70
2023-03-08T19:44:52.840Z,2.70
2023-03-08T19:47:21.022Z,2.70
2023-03-08T19:49:49.478Z,2.70
2023-03-08T19:52:18.560Z,2.70
2023-03-08T19:54:46.334Z,2.70
2023-03-08T19:57:14.047Z,2.70
2023-03-08T19:59:41.895Z,2.70
2023-03-08T20:02:13.058Z,2.70
2023-03-08T20:04:40.866Z,2.70
2023-03-08T20:07:08.676Z,2.70
2023-03-08T20:09:37.764Z,2.70
2023-03-08T20:12:05.494Z,2.70
2023-03-08T20:14:33.237Z,2.70
2023-03-08T20:17:01.762Z,2.70
2023-03-08T20:19:31.563Z,2.70
2023-03-08T20:21:59.538Z,2.70
2023-03-08T20:24:27.267Z,2.70
2023-03-08T20:26:56.372Z,2.70
2023-03-08T20:29:24.197Z,2.70
2023-03-08T20:31:51.969Z,2.70
2023-03-08T20:34:19.712Z,2.70
2023-03-08T20:36:47.647Z,2.70
2023-03-08T20:39:15.369Z,2.70
2023-03-08T20:41:43.086Z,2.70
2023-03-08T20:44:12.873Z,2.70
2023-03-08T20:46:40.622Z,2.70
2023-03-08T20:49:08.306Z,2.70
2023-03-08T20:51:36.276Z,2.70
2023-03-08T20:54:06.043Z,2.70
2023-03-08T20:56:33.803Z,2.70
2023-03-08T20:59:02.297Z,2.70
2023-03-08T21:01:33.345Z,2.70
2023-03-08T21:04:01.996Z,2.70
2023-03-08T21:06:32.300Z,2.70
2023-03-08T21:09:00.611Z,2.70
2023-03-08T21:11:28.862Z,2.70
2023-03-08T21:13:56.643Z,2.70
2023-03-08T21:16:26.444Z,2.70
2023-03-08T21:18:57.667Z,2.70
2023-03-08T21:21:27.935Z,2.70
2023-03-08T21:23:56.373Z,2.70
2023-03-08T21:26:25.674Z,2.70
2023-03-08T21:28:54.183Z,2.70
2023-03-08T21:31:22.090Z,2.70
2023-03-08T21:33:49.989Z,2.70
2023-03-08T21:36:19.059Z,2.70
2023-03-08T21:38:51.089Z,2.70
2023-03-08T21:41:19.552Z,2.70
2023-03-08T21:43:47.283Z,2.70
2023-03-08T21:46:15.126Z,2.70
2023-03-08T21:48:43.198Z,2.70
2023-03-08T21:51:11.253Z,2.70
2023-03-08T21:53:40.852Z,2.70
2023-03-08T21:56:09.973Z,2.70
2023-03-08T21:58:38.407Z,2.70
2023-03-08T22:01:08.034Z,2.70
2023-03-08T22:03:35.872Z,2.70
2023-03-08T22:06:03.548Z,2.70
2023-03-08T22:08:31.250Z,2.70
2023-03-08T22:11:00.283Z,2.70
2023-03-08T22:13:27.977Z,2.70
2023-03-08T22:15:56.334Z,2.70
2023-03-08T22:18:24.117Z,2.70
2023-03-08T22:20:51.798Z,2.70
2023-03-08T22:23:19.515Z,2.70
2023-03-08T22:25:47.266Z,2.70
2023-03-08T22:28:16.369Z,2.70
2023-03-08T22:30:44.128Z,2.70
2023-03-08T22:33:12.027Z,2.70
2023-03-08T22:35:39.877Z,2.70
2023-03-08T22:38:07.585Z,2.70
2023-03-08T22:40:38.169Z,2.70
2023-03-08T22:43:05.890Z,2.70
2023-03-08T22:45:35.440Z,2.70
2023-03-08T22:48:04.389Z,2.70
2023-03-08T22:50:32.238Z,2.80
2023-03-08T22:52:59.954Z,2.70
2023-03-08T22:55:27.681Z,2.70
2023-03-08T22:57:55.384Z,2.70
2023-03-08T23:00:23.148Z,2.70
2023-03-08T23:02:57.246Z,2.80
2023-03-08T23:05:25.628Z,2.80
2023-03-08T23:07:53.503Z,2.80
2023-03-08T23:10:21.456Z,2.80
2023-03-08T23:12:49.172Z,2.80
2023-03-08T23:15:17.041Z,2.80
2023-03-08T23:17:44.754Z,2.80
2023-03-08T23:20:14.526Z,2.80
2023-03-08T23:22:44.672Z,2.80
2023-03-08T23:25:12.806Z,2.80
2023-03-08T23:27:40.839Z,2.80
2023-03-08T23:30:10.572Z,2.80
2023-03-08T23:32:38.375Z,2.80
2023-03-08T23:35:07.011Z,2.80
2023-03-08T23:37:36.291Z,2.80
2023-03-08T23:40:04.701Z,2.80
2023-03-08T23:42:32.414Z,2.90
2023-03-08T23:45:00.159Z,2.80
2023-03-08T23:47:27.840Z,2.80
2023-03-08T23:49:55.710Z,2.80
2023-03-08T23:52:23.565Z,2.90
2023-03-08T23:54:52.615Z,2.90
2023-03-08T23:57:20.374Z,2.90
2023-03-08T23:59:48.175Z,2.90
